sensor_id;sensor_type;location;lat;lon;timestamp;P1;durP1;ratioP1;P2;durP2;ratioP2
5549;SDS011;2798;42.716;23.256;2022-10-16T00:00:35;7.17;;;5.43;;
5549;SDS011;2798;42.716;23.256;2022-10-16T00:03:04;8.80;;;5.40;;
5549;SDS011;2798;42.716;23.256;2022-10-16T00:05:31;8.63;;;5.57;;
5549;SDS011;2798;42.716;23.256;2022-10-16T00:07:57;9.23;;;6.07;;
5549;SDS011;2798;42.716;23.256;2022-10-16T00:10:22;7.47;;;5.90;;
5549;SDS011;2798;42.716;23.256;2022-10-16T00:12:48;7.47;;;5.50;;
5549;SDS011;2798;42.716;23.256;2022-10-16T00:15:13;8.60;;;6.13;;
5549;SDS011;2798;42.716;23.256;2022-10-16T00:17:39;11.40;;;6.47;;
5549;SDS011;2798;42.716;23.256;2022-10-16T00:20:04;10.43;;;6.30;;
5549;SDS011;2798;42.716;23.256;2022-10-16T00:22:30;8.20;;;5.00;;
5549;SDS011;2798;42.716;23.256;2022-10-16T00:24:56;8.83;;;4.87;;
5549;SDS011;2798;42.716;23.256;2022-10-16T00:27:21;5.27;;;4.77;;
5549;SDS011;2798;42.716;23.256;2022-10-16T00:29:50;11.30;;;5.07;;
5549;SDS011;2798;42.716;23.256;2022-10-16T00:32:16;7.70;;;4.97;;
5549;SDS011;2798;42.716;23.256;2022-10-16T00:34:42;7.70;;;5.73;;
5549;SDS011;2798;42.716;23.256;2022-10-16T00:37:08;6.60;;;4.73;;
5549;SDS011;2798;42.716;23.256;2022-10-16T00:39:33;9.67;;;5.93;;
5549;SDS011;2798;42.716;23.256;2022-10-16T00:41:59;6.87;;;4.77;;
5549;SDS011;2798;42.716;23.256;2022-10-16T00:47:13;7.70;;;5.10;;
5549;SDS011;2798;42.716;23.256;2022-10-16T00:49:43;7.00;;;5.30;;
5549;SDS011;2798;42.716;23.256;2022-10-16T00:52:09;9.20;;;5.73;;
5549;SDS011;2798;42.716;23.256;2022-10-16T00:54:35;9.03;;;5.60;;
5549;SDS011;2798;42.716;23.256;2022-10-16T00:57:03;7.07;;;5.53;;
5549;SDS011;2798;42.716;23.256;2022-10-16T00:59:32;8.13;;;5.77;;
5549;SDS011;2798;42.716;23.256;2022-10-16T01:02:03;6.90;;;5.83;;
5549;SDS011;2798;42.716;23.256;2022-10-16T01:04:32;8.37;;;4.93;;
5549;SDS011;2798;42.716;23.256;2022-10-16T01:13:03;8.97;;;5.30;;
5549;SDS011;2798;42.716;23.256;2022-10-16T01:23:40;6.43;;;5.43;;
5549;SDS011;2798;42.716;23.256;2022-10-16T01:32:15;19.03;;;5.90;;
5549;SDS011;2798;42.716;23.256;2022-10-16T01:34:47;6.80;;;5.30;;
5549;SDS011;2798;42.716;23.256;2022-10-16T01:37:20;13.63;;;6.20;;
5549;SDS011;2798;42.716;23.256;2022-10-16T01:39:52;8.40;;;6.47;;
5549;SDS011;2798;42.716;23.256;2022-10-16T01:42:22;8.47;;;5.27;;
5549;SDS011;2798;42.716;23.256;2022-10-16T01:44:53;11.33;;;5.97;;
5549;SDS011;2798;42.716;23.256;2022-10-16T01:47:21;7.40;;;5.33;;
5549;SDS011;2798;42.716;23.256;2022-10-16T01:49:48;11.63;;;5.23;;
5549;SDS011;2798;42.716;23.256;2022-10-16T01:52:16;7.07;;;5.50;;
5549;SDS011;2798;42.716;23.256;2022-10-16T01:54:46;6.43;;;5.47;;
5549;SDS011;2798;42.716;23.256;2022-10-16T01:57:15;8.47;;;5.13;;
5549;SDS011;2798;42.716;23.256;2022-10-16T01:59:44;6.47;;;5.20;;
5549;SDS011;2798;42.716;23.256;2022-10-16T02:02:14;12.43;;;5.37;;
5549;SDS011;2798;42.716;23.256;2022-10-16T02:05:15;7.50;;;6.07;;
5549;SDS011;2798;42.716;23.256;2022-10-16T02:07:41;8.20;;;6.07;;
5549;SDS011;2798;42.716;23.256;2022-10-16T02:10:07;8.00;;;5.00;;
5549;SDS011;2798;42.716;23.256;2022-10-16T02:12:33;10.30;;;6.10;;
5549;SDS011;2798;42.716;23.256;2022-10-16T02:15:02;8.30;;;5.20;;
5549;SDS011;2798;42.716;23.256;2022-10-16T02:17:28;7.40;;;5.73;;
5549;SDS011;2798;42.716;23.256;2022-10-16T02:19:53;6.80;;;5.27;;
5549;SDS011;2798;42.716;23.256;2022-10-16T02:22:26;6.50;;;4.70;;
5549;SDS011;2798;42.716;23.256;2022-10-16T02:24:54;8.43;;;5.37;;
5549;SDS011;2798;42.716;23.256;2022-10-16T02:32:55;8.50;;;5.60;;
5549;SDS011;2798;42.716;23.256;2022-10-16T02:35:23;6.70;;;5.87;;
5549;SDS011;2798;42.716;23.256;2022-10-16T02:37:50;7.70;;;5.87;;
5549;SDS011;2798;42.716;23.256;2022-10-16T02:40:17;7.60;;;5.17;;
5549;SDS011;2798;42.716;23.256;2022-10-16T02:42:43;7.40;;;5.50;;
5549;SDS011;2798;42.716;23.256;2022-10-16T02:45:09;7.00;;;6.00;;
5549;SDS011;2798;42.716;23.256;2022-10-16T02:47:36;55.00;;;25.90;;
5549;SDS011;2798;42.716;23.256;2022-10-16T02:50:02;50.37;;;23.70;;
5549;SDS011;2798;42.716;23.256;2022-10-16T02:52:28;71.43;;;34.00;;
5549;SDS011;2798;42.716;23.256;2022-10-16T02:54:53;41.53;;;20.73;;
5549;SDS011;2798;42.716;23.256;2022-10-16T02:57:19;36.17;;;17.47;;
5549;SDS011;2798;42.716;23.256;2022-10-16T02:59:44;18.63;;;10.93;;
5549;SDS011;2798;42.716;23.256;2022-10-16T03:02:10;22.43;;;12.13;;
5549;SDS011;2798;42.716;23.256;2022-10-16T03:04:35;16.03;;;8.70;;
5549;SDS011;2798;42.716;23.256;2022-10-16T03:07:01;16.13;;;10.00;;
5549;SDS011;2798;42.716;23.256;2022-10-16T03:09:27;12.07;;;9.30;;
5549;SDS011;2798;42.716;23.256;2022-10-16T03:11:52;13.40;;;8.93;;
5549;SDS011;2798;42.716;23.256;2022-10-16T03:14:18;13.10;;;10.17;;
5549;SDS011;2798;42.716;23.256;2022-10-16T03:16:43;19.30;;;10.30;;
5549;SDS011;2798;42.716;23.256;2022-10-16T03:19:08;13.60;;;8.70;;
5549;SDS011;2798;42.716;23.256;2022-10-16T03:21:34;8.07;;;6.80;;
5549;SDS011;2798;42.716;23.256;2022-10-16T03:23:59;13.27;;;7.70;;
5549;SDS011;2798;42.716;23.256;2022-10-16T03:26:25;8.73;;;6.57;;
5549;SDS011;2798;42.716;23.256;2022-10-16T03:28:50;8.73;;;6.00;;
5549;SDS011;2798;42.716;23.256;2022-10-16T03:31:16;5.93;;;4.97;;
5549;SDS011;2798;42.716;23.256;2022-10-16T03:33:41;7.80;;;5.10;;
5549;SDS011;2798;42.716;23.256;2022-10-16T03:36:06;8.67;;;5.30;;
5549;SDS011;2798;42.716;23.256;2022-10-16T03:38:32;6.20;;;5.57;;
5549;SDS011;2798;42.716;23.256;2022-10-16T03:40:57;5.97;;;4.97;;
5549;SDS011;2798;42.716;23.256;2022-10-16T03:43:23;11.93;;;5.10;;
5549;SDS011;2798;42.716;23.256;2022-10-16T03:45:49;8.73;;;5.93;;
5549;SDS011;2798;42.716;23.256;2022-10-16T03:48:16;9.90;;;5.90;;
5549;SDS011;2798;42.716;23.256;2022-10-16T03:50:42;8.30;;;6.20;;
5549;SDS011;2798;42.716;23.256;2022-10-16T03:53:07;6.53;;;5.50;;
5549;SDS011;2798;42.716;23.256;2022-10-16T03:55:34;14.60;;;5.17;;
5549;SDS011;2798;42.716;23.256;2022-10-16T03:57:59;9.97;;;6.37;;
5549;SDS011;2798;42.716;23.256;2022-10-16T04:00:25;7.63;;;6.37;;
5549;SDS011;2798;42.716;23.256;2022-10-16T04:02:51;10.20;;;5.00;;
5549;SDS011;2798;42.716;23.256;2022-10-16T04:05:16;15.23;;;6.43;;
5549;SDS011;2798;42.716;23.256;2022-10-16T04:07:42;8.77;;;5.70;;
5549;SDS011;2798;42.716;23.256;2022-10-16T04:10:07;9.47;;;6.00;;
5549;SDS011;2798;42.716;23.256;2022-10-16T04:12:33;6.70;;;5.73;;
5549;SDS011;2798;42.716;23.256;2022-10-16T04:14:58;7.03;;;5.70;;
5549;SDS011;2798;42.716;23.256;2022-10-16T04:17:24;8.20;;;5.47;;
5549;SDS011;2798;42.716;23.256;2022-10-16T04:19:49;9.37;;;6.00;;
5549;SDS011;2798;42.716;23.256;2022-10-16T04:22:15;7.33;;;5.47;;
5549;SDS011;2798;42.716;23.256;2022-10-16T04:24:40;9.10;;;5.80;;
5549;SDS011;2798;42.716;23.256;2022-10-16T04:27:05;11.63;;;6.20;;
5549;SDS011;2798;42.716;23.256;2022-10-16T04:29:31;8.90;;;6.50;;
5549;SDS011;2798;42.716;23.256;2022-10-16T04:31:56;9.50;;;6.47;;
5549;SDS011;2798;42.716;23.256;2022-10-16T04:34:22;7.60;;;5.93;;
5549;SDS011;2798;42.716;23.256;2022-10-16T04:36:47;11.33;;;6.80;;
5549;SDS011;2798;42.716;23.256;2022-10-16T04:39:16;11.97;;;6.10;;
5549;SDS011;2798;42.716;23.256;2022-10-16T04:41:41;8.70;;;5.70;;
5549;SDS011;2798;42.716;23.256;2022-10-16T04:44:07;9.10;;;5.53;;
5549;SDS011;2798;42.716;23.256;2022-10-16T04:46:32;10.30;;;6.20;;
5549;SDS011;2798;42.716;23.256;2022-10-16T04:48:58;8.03;;;5.80;;
5549;SDS011;2798;42.716;23.256;2022-10-16T04:51:23;18.67;;;7.17;;
5549;SDS011;2798;42.716;23.256;2022-10-16T04:53:50;9.50;;;6.67;;
5549;SDS011;2798;42.716;23.256;2022-10-16T04:56:16;11.37;;;6.53;;
5549;SDS011;2798;42.716;23.256;2022-10-16T04:58:42;10.70;;;6.43;;
5549;SDS011;2798;42.716;23.256;2022-10-16T05:01:07;10.57;;;7.43;;
5549;SDS011;2798;42.716;23.256;2022-10-16T05:03:33;9.97;;;6.93;;
5549;SDS011;2798;42.716;23.256;2022-10-16T05:05:59;11.70;;;6.20;;
5549;SDS011;2798;42.716;23.256;2022-10-16T05:08:24;15.83;;;6.60;;
5549;SDS011;2798;42.716;23.256;2022-10-16T05:10:50;13.83;;;7.07;;
5549;SDS011;2798;42.716;23.256;2022-10-16T05:13:15;14.73;;;6.70;;
5549;SDS011;2798;42.716;23.256;2022-10-16T05:15:41;8.50;;;5.70;;
5549;SDS011;2798;42.716;23.256;2022-10-16T05:18:06;9.10;;;6.27;;
5549;SDS011;2798;42.716;23.256;2022-10-16T05:20:32;8.60;;;5.60;;
5549;SDS011;2798;42.716;23.256;2022-10-16T05:22:57;9.33;;;6.17;;
5549;SDS011;2798;42.716;23.256;2022-10-16T05:25:23;10.57;;;6.30;;
5549;SDS011;2798;42.716;23.256;2022-10-16T05:27:49;9.23;;;6.73;;
5549;SDS011;2798;42.716;23.256;2022-10-16T05:30:15;8.23;;;6.80;;
5549;SDS011;2798;42.716;23.256;2022-10-16T05:32:41;13.97;;;7.10;;
5549;SDS011;2798;42.716;23.256;2022-10-16T05:35:07;10.70;;;7.20;;
5549;SDS011;2798;42.716;23.256;2022-10-16T05:37:33;19.00;;;7.23;;
5549;SDS011;2798;42.716;23.256;2022-10-16T05:39:58;8.80;;;6.60;;
5549;SDS011;2798;42.716;23.256;2022-10-16T05:42:24;9.70;;;5.63;;
5549;SDS011;2798;42.716;23.256;2022-10-16T05:44:49;15.07;;;6.73;;
5549;SDS011;2798;42.716;23.256;2022-10-16T05:47:14;10.63;;;6.87;;
5549;SDS011;2798;42.716;23.256;2022-10-16T05:49:40;12.73;;;6.90;;
5549;SDS011;2798;42.716;23.256;2022-10-16T05:52:05;8.40;;;6.30;;
5549;SDS011;2798;42.716;23.256;2022-10-16T05:54:31;15.60;;;8.70;;
5549;SDS011;2798;42.716;23.256;2022-10-16T05:56:56;13.77;;;7.97;;
5549;SDS011;2798;42.716;23.256;2022-10-16T05:59:22;9.73;;;7.77;;
5549;SDS011;2798;42.716;23.256;2022-10-16T06:01:47;15.63;;;7.00;;
5549;SDS011;2798;42.716;23.256;2022-10-16T06:04:13;12.27;;;6.57;;
5549;SDS011;2798;42.716;23.256;2022-10-16T06:06:38;11.50;;;6.93;;
5549;SDS011;2798;42.716;23.256;2022-10-16T06:09:04;18.10;;;6.73;;
5549;SDS011;2798;42.716;23.256;2022-10-16T06:11:31;10.93;;;6.87;;
5549;SDS011;2798;42.716;23.256;2022-10-16T06:13:58;13.63;;;7.83;;
5549;SDS011;2798;42.716;23.256;2022-10-16T06:16:27;25.57;;;8.60;;
5549;SDS011;2798;42.716;23.256;2022-10-16T06:18:53;11.27;;;7.47;;
5549;SDS011;2798;42.716;23.256;2022-10-16T06:21:21;11.40;;;7.80;;
5549;SDS011;2798;42.716;23.256;2022-10-16T06:23:49;13.63;;;8.20;;
5549;SDS011;2798;42.716;23.256;2022-10-16T06:26:16;11.73;;;8.33;;
5549;SDS011;2798;42.716;23.256;2022-10-16T06:28:43;13.50;;;7.20;;
5549;SDS011;2798;42.716;23.256;2022-10-16T06:31:09;13.20;;;7.70;;
5549;SDS011;2798;42.716;23.256;2022-10-16T06:33:36;12.90;;;8.07;;
5549;SDS011;2798;42.716;23.256;2022-10-16T06:36:06;11.13;;;7.30;;
5549;SDS011;2798;42.716;23.256;2022-10-16T06:38:36;11.40;;;7.90;;
5549;SDS011;2798;42.716;23.256;2022-10-16T06:41:03;9.90;;;8.00;;
5549;SDS011;2798;42.716;23.256;2022-10-16T06:43:30;13.77;;;8.47;;
5549;SDS011;2798;42.716;23.256;2022-10-16T06:46:02;12.00;;;8.13;;
5549;SDS011;2798;42.716;23.256;2022-10-16T06:48:29;12.43;;;9.03;;
5549;SDS011;2798;42.716;23.256;2022-10-16T06:53:21;13.40;;;8.13;;
5549;SDS011;2798;42.716;23.256;2022-10-16T06:55:47;10.77;;;8.10;;
5549;SDS011;2798;42.716;23.256;2022-10-16T06:58:12;11.27;;;8.27;;
5549;SDS011;2798;42.716;23.256;2022-10-16T07:00:37;12.27;;;8.80;;
5549;SDS011;2798;42.716;23.256;2022-10-16T07:03:03;13.97;;;9.23;;
5549;SDS011;2798;42.716;23.256;2022-10-16T07:05:28;12.60;;;8.47;;
5549;SDS011;2798;42.716;23.256;2022-10-16T07:07:54;12.87;;;8.40;;
5549;SDS011;2798;42.716;23.256;2022-10-16T07:10:19;12.13;;;9.10;;
5549;SDS011;2798;42.716;23.256;2022-10-16T07:12:44;12.73;;;8.80;;
5549;SDS011;2798;42.716;23.256;2022-10-16T07:15:10;15.63;;;9.37;;
5549;SDS011;2798;42.716;23.256;2022-10-16T07:17:35;11.50;;;8.27;;
5549;SDS011;2798;42.716;23.256;2022-10-16T07:20:01;11.67;;;7.90;;
5549;SDS011;2798;42.716;23.256;2022-10-16T07:22:28;11.03;;;8.07;;
5549;SDS011;2798;42.716;23.256;2022-10-16T07:24:53;24.93;;;8.70;;
5549;SDS011;2798;42.716;23.256;2022-10-16T07:27:19;14.13;;;8.50;;
5549;SDS011;2798;42.716;23.256;2022-10-16T07:29:47;12.47;;;9.17;;
5549;SDS011;2798;42.716;23.256;2022-10-16T07:32:12;12.13;;;9.50;;
5549;SDS011;2798;42.716;23.256;2022-10-16T07:34:38;12.43;;;8.20;;
5549;SDS011;2798;42.716;23.256;2022-10-16T07:37:03;10.57;;;8.23;;
5549;SDS011;2798;42.716;23.256;2022-10-16T07:39:28;8.60;;;7.33;;
5549;SDS011;2798;42.716;23.256;2022-10-16T07:41:54;10.47;;;7.77;;
5549;SDS011;2798;42.716;23.256;2022-10-16T07:44:19;12.13;;;8.20;;
5549;SDS011;2798;42.716;23.256;2022-10-16T07:46:45;14.00;;;7.23;;
5549;SDS011;2798;42.716;23.256;2022-10-16T07:49:11;11.70;;;8.60;;
5549;SDS011;2798;42.716;23.256;2022-10-16T07:51:36;11.73;;;8.13;;
5549;SDS011;2798;42.716;23.256;2022-10-16T07:54:03;12.90;;;8.03;;
5549;SDS011;2798;42.716;23.256;2022-10-16T07:56:30;10.07;;;7.93;;
5549;SDS011;2798;42.716;23.256;2022-10-16T07:58:56;14.40;;;8.17;;
5549;SDS011;2798;42.716;23.256;2022-10-16T08:01:21;13.97;;;7.90;;
5549;SDS011;2798;42.716;23.256;2022-10-16T08:03:50;20.10;;;7.80;;
5549;SDS011;2798;42.716;23.256;2022-10-16T08:06:17;13.37;;;7.40;;
5549;SDS011;2798;42.716;23.256;2022-10-16T08:08:43;14.10;;;7.50;;
5549;SDS011;2798;42.716;23.256;2022-10-16T08:11:08;16.40;;;6.77;;
5549;SDS011;2798;42.716;23.256;2022-10-16T08:13:34;11.20;;;6.67;;
5549;SDS011;2798;42.716;23.256;2022-10-16T08:16:00;14.77;;;7.83;;
5549;SDS011;2798;42.716;23.256;2022-10-16T08:18:26;13.70;;;7.20;;
5549;SDS011;2798;42.716;23.256;2022-10-16T08:20:58;9.67;;;7.20;;
5549;SDS011;2798;42.716;23.256;2022-10-16T08:23:25;11.20;;;7.50;;
5549;SDS011;2798;42.716;23.256;2022-10-16T08:25:51;12.60;;;7.27;;
5549;SDS011;2798;42.716;23.256;2022-10-16T08:28:18;12.40;;;7.67;;
5549;SDS011;2798;42.716;23.256;2022-10-16T08:30:44;14.27;;;7.00;;
5549;SDS011;2798;42.716;23.256;2022-10-16T08:33:10;11.20;;;7.00;;
5549;SDS011;2798;42.716;23.256;2022-10-16T08:35:36;10.13;;;7.43;;
5549;SDS011;2798;42.716;23.256;2022-10-16T08:38:05;12.30;;;7.90;;
5549;SDS011;2798;42.716;23.256;2022-10-16T08:40:32;10.70;;;7.30;;
5549;SDS011;2798;42.716;23.256;2022-10-16T08:51:10;10.93;;;5.70;;
5549;SDS011;2798;42.716;23.256;2022-10-16T08:56:56;8.03;;;6.17;;
5549;SDS011;2798;42.716;23.256;2022-10-16T08:59:26;8.80;;;6.00;;
5549;SDS011;2798;42.716;23.256;2022-10-16T09:01:51;10.07;;;6.40;;
5549;SDS011;2798;42.716;23.256;2022-10-16T09:04:26;6.87;;;5.33;;
5549;SDS011;2798;42.716;23.256;2022-10-16T09:07:09;9.60;;;6.30;;
5549;SDS011;2798;42.716;23.256;2022-10-16T09:15:35;8.40;;;5.50;;
5549;SDS011;2798;42.716;23.256;2022-10-16T09:21:13;8.63;;;4.40;;
5549;SDS011;2798;42.716;23.256;2022-10-16T09:23:43;4.30;;;3.53;;
5549;SDS011;2798;42.716;23.256;2022-10-16T09:26:12;6.27;;;4.40;;
5549;SDS011;2798;42.716;23.256;2022-10-16T09:28:39;4.73;;;4.10;;
5549;SDS011;2798;42.716;23.256;2022-10-16T09:31:05;6.37;;;4.27;;
5549;SDS011;2798;42.716;23.256;2022-10-16T09:33:33;5.37;;;4.30;;
5549;SDS011;2798;42.716;23.256;2022-10-16T09:36:02;5.50;;;4.03;;
5549;SDS011;2798;42.716;23.256;2022-10-16T09:41:01;6.33;;;3.77;;
5549;SDS011;2798;42.716;23.256;2022-10-16T09:46:07;7.90;;;4.17;;
5549;SDS011;2798;42.716;23.256;2022-10-16T09:48:47;6.30;;;4.03;;
5549;SDS011;2798;42.716;23.256;2022-10-16T09:51:25;5.70;;;3.83;;
5549;SDS011;2798;42.716;23.256;2022-10-16T09:54:34;6.00;;;3.70;;
5549;SDS011;2798;42.716;23.256;2022-10-16T09:56:46;5.63;;;3.90;;
5549;SDS011;2798;42.716;23.256;2022-10-16T09:59:20;4.80;;;3.50;;
5549;SDS011;2798;42.716;23.256;2022-10-16T10:01:49;6.13;;;3.40;;
5549;SDS011;2798;42.716;23.256;2022-10-16T10:04:19;4.97;;;3.30;;
5549;SDS011;2798;42.716;23.256;2022-10-16T10:06:47;4.13;;;3.37;;
5549;SDS011;2798;42.716;23.256;2022-10-16T10:14:30;5.97;;;3.80;;
5549;SDS011;2798;42.716;23.256;2022-10-16T10:19:36;4.93;;;3.30;;
5549;SDS011;2798;42.716;23.256;2022-10-16T10:38:09;5.60;;;3.50;;
5549;SDS011;2798;42.716;23.256;2022-10-16T10:50:16;6.03;;;3.47;;
5549;SDS011;2798;42.716;23.256;2022-10-16T10:52:41;4.30;;;3.00;;
5549;SDS011;2798;42.716;23.256;2022-10-16T10:56:00;3.47;;;3.17;;
5549;SDS011;2798;42.716;23.256;2022-10-16T10:58:41;4.03;;;3.40;;
5549;SDS011;2798;42.716;23.256;2022-10-16T11:01:30;3.37;;;2.97;;
5549;SDS011;2798;42.716;23.256;2022-10-16T11:07:11;4.83;;;3.37;;
5549;SDS011;2798;42.716;23.256;2022-10-16T11:09:44;4.83;;;3.50;;
5549;SDS011;2798;42.716;23.256;2022-10-16T11:12:20;3.87;;;3.40;;
5549;SDS011;2798;42.716;23.256;2022-10-16T11:17:39;5.43;;;3.57;;
5549;SDS011;2798;42.716;23.256;2022-10-16T11:20:14;9.80;;;4.20;;
5549;SDS011;2798;42.716;23.256;2022-10-16T11:25:26;10.53;;;3.00;;
5549;SDS011;2798;42.716;23.256;2022-10-16T11:28:09;5.07;;;3.20;;
5549;SDS011;2798;42.716;23.256;2022-10-16T11:30:46;3.33;;;3.03;;
5549;SDS011;2798;42.716;23.256;2022-10-16T11:33:20;4.67;;;3.53;;
5549;SDS011;2798;42.716;23.256;2022-10-16T11:35:53;7.60;;;3.50;;
5549;SDS011;2798;42.716;23.256;2022-10-16T11:40:54;9.33;;;3.53;;
5549;SDS011;2798;42.716;23.256;2022-10-16T11:43:30;5.37;;;3.67;;
5549;SDS011;2798;42.716;23.256;2022-10-16T11:46:04;13.13;;;3.90;;
5549;SDS011;2798;42.716;23.256;2022-10-16T11:56:27;4.93;;;3.00;;
5549;SDS011;2798;42.716;23.256;2022-10-16T11:59:02;3.50;;;2.83;;
5549;SDS011;2798;42.716;23.256;2022-10-16T12:01:46;3.80;;;2.90;;
5549;SDS011;2798;42.716;23.256;2022-10-16T12:04:40;7.23;;;3.07;;
5549;SDS011;2798;42.716;23.256;2022-10-16T12:07:15;7.83;;;3.00;;
5549;SDS011;2798;42.716;23.256;2022-10-16T12:09:46;7.10;;;2.73;;
5549;SDS011;2798;42.716;23.256;2022-10-16T12:12:27;5.40;;;3.00;;
5549;SDS011;2798;42.716;23.256;2022-10-16T12:17:56;3.30;;;3.00;;
5549;SDS011;2798;42.716;23.256;2022-10-16T12:20:27;6.57;;;3.50;;
5549;SDS011;2798;42.716;23.256;2022-10-16T12:23:05;9.10;;;3.53;;
5549;SDS011;2798;42.716;23.256;2022-10-16T12:25:38;5.00;;;3.20;;
5549;SDS011;2798;42.716;23.256;2022-10-16T12:28:20;8.30;;;3.23;;
5549;SDS011;2798;42.716;23.256;2022-10-16T12:30:54;3.53;;;2.93;;
5549;SDS011;2798;42.716;23.256;2022-10-16T12:33:51;5.20;;;3.43;;
5549;SDS011;2798;42.716;23.256;2022-10-16T12:36:32;4.67;;;3.40;;
5549;SDS011;2798;42.716;23.256;2022-10-16T12:38:59;3.50;;;2.70;;
5549;SDS011;2798;42.716;23.256;2022-10-16T12:41:33;4.37;;;3.40;;
5549;SDS011;2798;42.716;23.256;2022-10-16T12:44:00;5.73;;;3.30;;
5549;SDS011;2798;42.716;23.256;2022-10-16T12:51:53;3.87;;;3.03;;
5549;SDS011;2798;42.716;23.256;2022-10-16T12:54:29;3.63;;;2.77;;
5549;SDS011;2798;42.716;23.256;2022-10-16T13:02:39;5.97;;;2.70;;
5549;SDS011;2798;42.716;23.256;2022-10-16T13:05:26;3.93;;;2.60;;
5549;SDS011;2798;42.716;23.256;2022-10-16T13:21:43;11.90;;;2.80;;
5549;SDS011;2798;42.716;23.256;2022-10-16T13:29:30;2.80;;;2.60;;
5549;SDS011;2798;42.716;23.256;2022-10-16T13:31:58;3.80;;;2.57;;
5549;SDS011;2798;42.716;23.256;2022-10-16T13:34:25;2.97;;;2.77;;
5549;SDS011;2798;42.716;23.256;2022-10-16T13:36:52;3.33;;;2.60;;
5549;SDS011;2798;42.716;23.256;2022-10-16T13:39:25;2.70;;;2.37;;
5549;SDS011;2798;42.716;23.256;2022-10-16T13:44:35;4.87;;;2.33;;
5549;SDS011;2798;42.716;23.256;2022-10-16T13:47:04;2.90;;;2.57;;
5549;SDS011;2798;42.716;23.256;2022-10-16T13:49:30;2.93;;;2.60;;
5549;SDS011;2798;42.716;23.256;2022-10-16T13:51:56;3.13;;;2.50;;
5549;SDS011;2798;42.716;23.256;2022-10-16T13:54:24;6.00;;;3.10;;
5549;SDS011;2798;42.716;23.256;2022-10-16T13:56:51;7.60;;;2.80;;
5549;SDS011;2798;42.716;23.256;2022-10-16T13:59:24;5.40;;;3.00;;
5549;SDS011;2798;42.716;23.256;2022-10-16T14:02:00;3.57;;;2.60;;
5549;SDS011;2798;42.716;23.256;2022-10-16T14:04:40;3.33;;;2.70;;
5549;SDS011;2798;42.716;23.256;2022-10-16T14:07:11;5.80;;;3.47;;
5549;SDS011;2798;42.716;23.256;2022-10-16T14:09:40;7.93;;;2.70;;
5549;SDS011;2798;42.716;23.256;2022-10-16T14:12:09;3.30;;;2.20;;
5549;SDS011;2798;42.716;23.256;2022-10-16T14:14:41;3.80;;;2.20;;
5549;SDS011;2798;42.716;23.256;2022-10-16T14:17:15;2.90;;;2.33;;
5549;SDS011;2798;42.716;23.256;2022-10-16T14:19:45;4.23;;;2.53;;
5549;SDS011;2798;42.716;23.256;2022-10-16T14:22:21;2.80;;;2.43;;
5549;SDS011;2798;42.716;23.256;2022-10-16T14:24:57;3.03;;;2.10;;
5549;SDS011;2798;42.716;23.256;2022-10-16T14:30:30;6.70;;;2.43;;
5549;SDS011;2798;42.716;23.256;2022-10-16T14:33:05;3.47;;;2.93;;
5549;SDS011;2798;42.716;23.256;2022-10-16T14:35:44;6.90;;;2.33;;
5549;SDS011;2798;42.716;23.256;2022-10-16T14:38:19;6.00;;;2.20;;
5549;SDS011;2798;42.716;23.256;2022-10-16T14:40:48;2.20;;;2.00;;
5549;SDS011;2798;42.716;23.256;2022-10-16T14:43:15;4.00;;;2.80;;
5549;SDS011;2798;42.716;23.256;2022-10-16T14:45:49;3.20;;;2.30;;
5549;SDS011;2798;42.716;23.256;2022-10-16T14:48:17;2.93;;;2.50;;
5549;SDS011;2798;42.716;23.256;2022-10-16T14:50:44;2.40;;;2.20;;
5549;SDS011;2798;42.716;23.256;2022-10-16T14:53:13;5.70;;;2.20;;
5549;SDS011;2798;42.716;23.256;2022-10-16T14:55:39;8.83;;;2.53;;
5549;SDS011;2798;42.716;23.256;2022-10-16T14:58:05;10.77;;;2.63;;
5549;SDS011;2798;42.716;23.256;2022-10-16T15:00:35;2.47;;;2.20;;
5549;SDS011;2798;42.716;23.256;2022-10-16T15:03:01;3.27;;;2.20;;
5549;SDS011;2798;42.716;23.256;2022-10-16T15:05:27;4.73;;;2.90;;
5549;SDS011;2798;42.716;23.256;2022-10-16T15:07:53;3.47;;;2.80;;
5549;SDS011;2798;42.716;23.256;2022-10-16T15:10:20;3.07;;;2.53;;
5549;SDS011;2798;42.716;23.256;2022-10-16T15:12:47;6.70;;;2.83;;
5549;SDS011;2798;42.716;23.256;2022-10-16T15:18:06;4.90;;;2.73;;
5549;SDS011;2798;42.716;23.256;2022-10-16T15:20:33;5.10;;;2.73;;
5549;SDS011;2798;42.716;23.256;2022-10-16T15:23:04;4.30;;;3.10;;
5549;SDS011;2798;42.716;23.256;2022-10-16T15:25:38;2.43;;;2.23;;
5549;SDS011;2798;42.716;23.256;2022-10-16T15:28:10;8.70;;;2.50;;
5549;SDS011;2798;42.716;23.256;2022-10-16T15:30:37;8.10;;;3.10;;
5549;SDS011;2798;42.716;23.256;2022-10-16T15:33:03;3.67;;;2.70;;
5549;SDS011;2798;42.716;23.256;2022-10-16T15:35:30;7.17;;;2.63;;
5549;SDS011;2798;42.716;23.256;2022-10-16T15:37:55;3.30;;;2.40;;
5549;SDS011;2798;42.716;23.256;2022-10-16T15:40:22;3.67;;;3.07;;
5549;SDS011;2798;42.716;23.256;2022-10-16T15:42:48;7.53;;;3.23;;
5549;SDS011;2798;42.716;23.256;2022-10-16T15:45:14;7.33;;;3.10;;
5549;SDS011;2798;42.716;23.256;2022-10-16T15:47:40;9.37;;;3.53;;
5549;SDS011;2798;42.716;23.256;2022-10-16T15:50:06;5.20;;;3.07;;
5549;SDS011;2798;42.716;23.256;2022-10-16T15:52:33;10.57;;;3.50;;
5549;SDS011;2798;42.716;23.256;2022-10-16T15:54:59;5.77;;;2.80;;
5549;SDS011;2798;42.716;23.256;2022-10-16T15:57:24;6.10;;;3.03;;
5549;SDS011;2798;42.716;23.256;2022-10-16T15:59:50;8.00;;;3.90;;
5549;SDS011;2798;42.716;23.256;2022-10-16T16:02:16;5.13;;;2.90;;
5549;SDS011;2798;42.716;23.256;2022-10-16T16:04:41;4.30;;;3.10;;
5549;SDS011;2798;42.716;23.256;2022-10-16T16:07:07;6.10;;;3.27;;
5549;SDS011;2798;42.716;23.256;2022-10-16T16:09:33;7.03;;;3.40;;
5549;SDS011;2798;42.716;23.256;2022-10-16T16:11:59;6.73;;;3.60;;
5549;SDS011;2798;42.716;23.256;2022-10-16T16:14:25;9.60;;;4.00;;
5549;SDS011;2798;42.716;23.256;2022-10-16T16:16:53;6.70;;;4.13;;
5549;SDS011;2798;42.716;23.256;2022-10-16T16:19:22;9.00;;;4.63;;
5549;SDS011;2798;42.716;23.256;2022-10-16T16:21:47;6.63;;;5.20;;
5549;SDS011;2798;42.716;23.256;2022-10-16T16:24:13;8.87;;;5.17;;
5549;SDS011;2798;42.716;23.256;2022-10-16T16:26:38;13.13;;;5.70;;
5549;SDS011;2798;42.716;23.256;2022-10-16T16:29:08;9.97;;;6.30;;
5549;SDS011;2798;42.716;23.256;2022-10-16T16:31:37;7.87;;;5.30;;
5549;SDS011;2798;42.716;23.256;2022-10-16T16:34:03;9.23;;;4.97;;
5549;SDS011;2798;42.716;23.256;2022-10-16T16:36:28;8.13;;;5.07;;
5549;SDS011;2798;42.716;23.256;2022-10-16T16:38:54;7.40;;;4.87;;
5549;SDS011;2798;42.716;23.256;2022-10-16T16:41:20;8.70;;;5.80;;
5549;SDS011;2798;42.716;23.256;2022-10-16T16:43:47;8.97;;;5.73;;
5549;SDS011;2798;42.716;23.256;2022-10-16T16:46:13;8.20;;;6.00;;
5549;SDS011;2798;42.716;23.256;2022-10-16T16:48:40;14.20;;;5.40;;
5549;SDS011;2798;42.716;23.256;2022-10-16T16:51:10;10.10;;;5.40;;
5549;SDS011;2798;42.716;23.256;2022-10-16T16:53:40;5.80;;;4.80;;
5549;SDS011;2798;42.716;23.256;2022-10-16T16:56:06;6.63;;;4.67;;
5549;SDS011;2798;42.716;23.256;2022-10-16T16:58:32;7.30;;;4.80;;
5549;SDS011;2798;42.716;23.256;2022-10-16T17:00:59;11.37;;;5.43;;
5549;SDS011;2798;42.716;23.256;2022-10-16T17:03:30;10.10;;;4.53;;
5549;SDS011;2798;42.716;23.256;2022-10-16T17:06:00;8.63;;;5.00;;
5549;SDS011;2798;42.716;23.256;2022-10-16T17:08:28;5.37;;;4.40;;
5549;SDS011;2798;42.716;23.256;2022-10-16T17:10:55;7.30;;;5.10;;
5549;SDS011;2798;42.716;23.256;2022-10-16T17:13:25;8.53;;;5.07;;
5549;SDS011;2798;42.716;23.256;2022-10-16T17:15:52;8.03;;;4.67;;
5549;SDS011;2798;42.716;23.256;2022-10-16T17:18:18;8.70;;;4.57;;
5549;SDS011;2798;42.716;23.256;2022-10-16T17:20:45;6.63;;;4.50;;
5549;SDS011;2798;42.716;23.256;2022-10-16T17:23:11;13.10;;;4.73;;
5549;SDS011;2798;42.716;23.256;2022-10-16T17:25:37;6.53;;;4.40;;
5549;SDS011;2798;42.716;23.256;2022-10-16T17:28:04;8.53;;;4.57;;
5549;SDS011;2798;42.716;23.256;2022-10-16T17:30:30;7.80;;;4.03;;
5549;SDS011;2798;42.716;23.256;2022-10-16T17:32:58;8.43;;;4.53;;